createdAt,value
2017-07-10T00:00:46.315Z,1002.07
2017-07-10T00:01:47.559Z,1002.06
2017-07-10T00:02:48.828Z,1002.04
2017-07-10T00:03:50.073Z,1002.05
2017-07-10T00:04:51.323Z,1002.03
2017-07-10T00:05:52.574Z,1002.03
2017-07-10T00:06:53.818Z,1002.04
2017-07-10T00:07:55.102Z,1002.02
2017-07-10T00:08:56.362Z,1002.01
2017-07-10T00:09:57.631Z,1002.02
2017-07-10T00:10:58.882Z,1002.06
2017-07-10T00:12:00.128Z,1002.03
2017-07-10T00:13:01.388Z,1002.06
2017-07-10T00:14:02.661Z,1002.05
2017-07-10T00:15:03.934Z,1002.03
2017-07-10T00:16:05.213Z,1002
2017-07-10T00:17:06.450Z,1001.97
2017-07-10T00:18:07.709Z,1001.97
2017-07-10T00:19:08.978Z,1001.99
2017-07-10T00:20:10.293Z,1001.99
2017-07-10T00:21:11.680Z,1001.98
2017-07-10T00:22:12.797Z,1002.01
2017-07-10T00:23:14.146Z,1002.03
2017-07-10T00:24:15.403Z,1002.03
2017-07-10T00:25:16.814Z,1002.01
2017-07-10T00:26:18.161Z,1002.01
2017-07-10T00:27:19.430Z,1002.03
2017-07-10T00:28:20.667Z,1002.01
2017-07-10T00:29:21.947Z,1001.99
2017-07-10T00:30:23.169Z,1001.96
2017-07-10T00:31:24.426Z,1001.99
2017-07-10T00:32:25.775Z,1001.97
2017-07-10T00:33:26.922Z,1001.94
2017-07-10T00:34:28.160Z,1001.97
2017-07-10T00:35:29.479Z,1001.97
2017-07-10T00:36:30.809Z,1001.99
2017-07-10T00:37:32.112Z,1002.02
2017-07-10T00:38:33.317Z,1002
2017-07-10T00:39:34.682Z,1002.06
2017-07-10T00:40:35.957Z,1002.02
2017-07-10T00:41:37.191Z,1002.04
2017-07-10T00:42:38.425Z,1002.06
2017-07-10T00:43:39.701Z,1002.04
2017-07-10T00:44:41.062Z,1002.04
2017-07-10T00:45:42.356Z,1002.03
2017-07-10T00:46:43.643Z,1002
2017-07-10T00:47:44.880Z,1002.01
2017-07-10T00:48:46.129Z,1002.01
2017-07-10T00:49:47.382Z,1002
2017-07-10T00:50:48.751Z,1001.96
2017-07-10T00:51:49.966Z,1001.97
2017-07-10T00:52:51.222Z,1001.94
2017-07-10T00:53:52.464Z,1001.95
2017-07-10T00:54:53.745Z,1001.91
2017-07-10T00:55:55.022Z,1001.96
2017-07-10T00:56:56.281Z,1001.93
2017-07-10T00:57:57.575Z,1001.93
2017-07-10T00:58:58.799Z,1001.94
2017-07-10T01:00:00.046Z,1001.92
2017-07-10T01:01:01.306Z,1001.87
2017-07-10T01:02:02.695Z,1001.88
2017-07-10T01:03:03.939Z,1001.86
2017-07-10T01:04:05.251Z,1001.85
2017-07-10T01:05:06.443Z,1001.89
2017-07-10T01:06:07.675Z,1001.82
2017-07-10T01:07:08.952Z,1001.83
2017-07-10T01:08:10.276Z,1001.8
2017-07-10T01:09:11.500Z,1001.81
2017-07-10T01:10:12.819Z,1001.8
2017-07-10T01:11:14.058Z,1001.82
2017-07-10T01:12:15.309Z,1001.79
2017-07-10T01:13:16.571Z,1001.75
2017-07-10T01:14:17.822Z,1001.72
2017-07-10T01:15:19.157Z,1001.72
2017-07-10T01:16:20.494Z,1001.71
2017-07-10T01:17:21.784Z,1001.67
2017-07-10T01:18:23.031Z,1001.66
2017-07-10T01:19:24.290Z,1001.64
2017-07-10T01:20:25.546Z,1001.65
2017-07-10T01:21:26.809Z,1001.61
2017-07-10T01:22:28.078Z,1001.6
2017-07-10T01:23:29.332Z,1001.59
2017-07-10T01:24:30.612Z,1001.6
2017-07-10T01:25:31.828Z,1001.56
2017-07-10T01:26:33.106Z,1001.53
2017-07-10T01:27:34.545Z,1001.54
2017-07-10T01:28:35.878Z,1001.54
2017-07-10T01:29:37.127Z,1001.53
2017-07-10T01:30:38.389Z,1001.55
2017-07-10T01:31:39.630Z,1001.58
2017-07-10T01:32:40.899Z,1001.52
2017-07-10T01:33:42.269Z,1001.58
2017-07-10T01:34:43.506Z,1001.51
2017-07-10T01:35:44.757Z,1001.53
2017-07-10T01:36:46.024Z,1001.52
2017-07-10T01:37:47.251Z,1001.58
2017-07-10T01:38:48.620Z,1001.55
2017-07-10T01:39:49.863Z,1001.49
2017-07-10T01:40:51.110Z,1001.52
2017-07-10T01:41:52.355Z,1001.46
2017-07-10T01:42:53.611Z,1001.49
2017-07-10T01:43:54.859Z,1001.49
2017-07-10T01:44:56.155Z,1001.46
2017-07-10T01:45:57.456Z,1001.45
2017-07-10T01:46:58.683Z,1001.44
2017-07-10T01:47:59.942Z,1001.43
2017-07-10T01:49:01.182Z,1001.39
2017-07-10T01:50:02.442Z,1001.39
2017-07-10T01:51:03.732Z,1001.35
2017-07-10T01:52:04.969Z,1001.33
2017-07-10T01:53:06.199Z,1001.33
2017-07-10T01:54:07.458Z,1001.33
2017-07-10T01:55:08.703Z,1001.34
2017-07-10T01:56:09.953Z,1001.31
2017-07-10T01:57:11.203Z,1001.39
2017-07-10T01:58:12.487Z,1001.38
2017-07-10T01:59:13.801Z,1001.4
2017-07-10T02:00:15.048Z,1001.38
2017-07-10T02:01:16.289Z,1001.38
2017-07-10T02:02:17.538Z,1001.39
2017-07-10T02:03:18.817Z,1001.4
2017-07-10T02:04:20.117Z,1001.4
2017-07-10T02:05:21.371Z,1001.4
2017-07-10T02:06:22.645Z,1001.39
2017-07-10T02:07:23.913Z,1001.4
2017-07-10T02:08:25.172Z,1001.4
2017-07-10T02:09:26.425Z,1001.37
2017-07-10T02:10:27.728Z,1001.37
2017-07-10T02:11:29.003Z,1001.35
2017-07-10T02:12:30.258Z,1001.32
2017-07-10T02:13:31.507Z,1001.32
2017-07-10T02:14:32.768Z,1001.27
2017-07-10T02:15:34.019Z,1001.29
2017-07-10T02:16:35.280Z,1001.29
2017-07-10T02:17:36.574Z,1001.34
2017-07-10T02:18:37.851Z,1001.32
2017-07-10T02:19:39.122Z,1001.33
2017-07-10T02:20:40.394Z,1001.38
2017-07-10T02:21:41.660Z,1001.37
2017-07-10T02:22:42.910Z,1001.36
2017-07-10T02:23:44.253Z,1001.39
2017-07-10T02:24:45.508Z,1001.36
2017-07-10T02:25:46.747Z,1001.36
2017-07-10T02:26:48.006Z,1001.36
2017-07-10T02:27:49.253Z,1001.35
2017-07-10T02:28:50.567Z,1001.35
2017-07-10T02:29:51.823Z,1001.35
2017-07-10T02:30:53.095Z,1001.32
2017-07-10T02:31:54.319Z,1001.33
2017-07-10T02:32:55.557Z,1001.36
2017-07-10T02:33:56.797Z,1001.33
2017-07-10T02:34:58.057Z,1001.34
2017-07-10T02:35:59.316Z,1001.32
2017-07-10T02:37:00.620Z,1001.3
2017-07-10T02:38:01.866Z,1001.32
2017-07-10T02:39:03.113Z,1001.28
2017-07-10T02:40:04.398Z,1001.29
2017-07-10T02:41:05.643Z,1001.32
2017-07-10T02:42:06.873Z,1001.33
2017-07-10T02:43:08.159Z,1001.33
2017-07-10T02:44:09.418Z,1001.32
2017-07-10T02:45:10.673Z,1001.31
2017-07-10T02:46:11.914Z,1001.33
2017-07-10T02:47:13.242Z,1001.31
2017-07-10T02:48:14.500Z,1001.31
2017-07-10T02:49:15.751Z,1001.28
2017-07-10T02:50:16.996Z,1001.33
2017-07-10T02:51:18.254Z,1001.32
2017-07-10T02:52:19.504Z,1001.36
2017-07-10T02:53:20.791Z,1001.28
2017-07-10T02:54:22.036Z,1001.32
2017-07-10T02:55:23.291Z,1001.34
2017-07-10T02:56:24.561Z,1001.31
2017-07-10T02:57:25.799Z,1001.3
2017-07-10T02:58:27.050Z,1001.34
2017-07-10T02:59:28.299Z,1001.33
2017-07-10T03:00:29.536Z,1001.32
2017-07-10T03:01:30.992Z,1001.32
2017-07-10T03:02:32.294Z,1001.33
2017-07-10T03:03:33.541Z,1001.31
2017-07-10T03:04:34.791Z,1001.36
2017-07-10T03:05:36.044Z,1001.34
2017-07-10T03:06:37.295Z,1001.32
2017-07-10T03:07:38.727Z,1001.36
2017-07-10T03:08:39.989Z,1001.31
2017-07-10T03:09:41.243Z,1001.32
2017-07-10T03:10:42.502Z,1001.28
2017-07-10T03:11:43.746Z,1001.23
2017-07-10T03:12:44.995Z,1001.2
2017-07-10T03:13:46.255Z,1001.21
2017-07-10T03:14:47.522Z,1001.23
2017-07-10T03:15:48.761Z,1001.2
2017-07-10T03:16:50.031Z,1001.21
2017-07-10T03:17:51.310Z,1001.17
2017-07-10T03:18:52.619Z,1001.11
2017-07-10T03:19:53.858Z,1001.12
2017-07-10T03:20:55.109Z,1001.1
2017-07-10T03:21:56.356Z,1001.08
2017-07-10T03:22:57.605Z,1001.12
2017-07-10T03:23:58.855Z,1001.1
2017-07-10T03:25:00.176Z,1001.11
2017-07-10T03:26:01.409Z,1001.08
2017-07-10T03:27:02.780Z,1001.06
2017-07-10T03:28:04.038Z,1001.02
2017-07-10T03:29:05.296Z,1001
2017-07-10T03:30:06.535Z,1000.97
2017-07-10T03:31:07.784Z,1000.98
2017-07-10T03:32:09.032Z,1000.93
2017-07-10T03:33:10.326Z,1000.88
2017-07-10T03:34:11.583Z,1000.86
2017-07-10T03:35:12.841Z,1000.87
2017-07-10T03:36:14.074Z,1000.83
2017-07-10T03:37:15.334Z,1000.83
2017-07-10T03:38:16.595Z,1000.85
2017-07-10T03:39:17.859Z,1000.81
2017-07-10T03:40:19.122Z,1000.86
2017-07-10T03:41:20.350Z,1000.86
2017-07-10T03:42:21.588Z,1000.8
2017-07-10T03:43:22.939Z,1000.81
2017-07-10T03:44:24.211Z,1000.76
2017-07-10T03:45:25.467Z,1000.8
2017-07-10T03:46:26.706Z,1000.75
2017-07-10T03:47:28.107Z,1000.78
2017-07-10T03:48:29.317Z,1000.75
2017-07-10T03:49:30.580Z,1000.72
2017-07-10T03:50:31.878Z,1000.76
2017-07-10T03:51:33.115Z,1000.77
2017-07-10T03:52:34.365Z,1000.73
2017-07-10T03:53:35.627Z,1000.75
2017-07-10T03:54:36.889Z,1000.72
2017-07-10T03:55:38.156Z,1000.76
2017-07-10T03:56:39.409Z,1000.75
2017-07-10T03:57:40.764Z,1000.79
2017-07-10T03:58:42.066Z,1000.79
2017-07-10T03:59:43.313Z,1000.79
2017-07-10T04:00:44.563Z,1000.79
2017-07-10T04:01:45.812Z,1000.8
2017-07-10T04:02:47.058Z,1000.79
2017-07-10T04:03:48.314Z,1000.75
2017-07-10T04:04:49.623Z,1000.72
2017-07-10T04:05:50.894Z,1000.73
2017-07-10T04:06:52.127Z,1000.72
2017-07-10T04:07:53.374Z,1000.71
2017-07-10T04:08:54.685Z,1000.7
2017-07-10T04:09:55.940Z,1000.7
2017-07-10T04:10:57.178Z,1000.7
2017-07-10T04:11:58.441Z,1000.67
2017-07-10T04:12:59.706Z,1000.67
2017-07-10T04:14:00.956Z,1000.62
2017-07-10T04:15:02.296Z,1000.65
2017-07-10T04:16:03.649Z,1000.68
2017-07-10T04:17:04.866Z,1000.63
2017-07-10T04:18:06.132Z,1000.59
2017-07-10T04:19:07.384Z,1000.57
2017-07-10T04:20:08.611Z,1000.56
2017-07-10T04:21:09.971Z,1000.57
2017-07-10T04:22:11.223Z,1000.54
2017-07-10T04:23:12.460Z,1000.54
2017-07-10T04:24:13.725Z,1000.55
2017-07-10T04:25:14.974Z,1000.52
2017-07-10T04:26:16.239Z,1000.54
2017-07-10T04:27:17.497Z,1000.53
2017-07-10T04:28:18.831Z,1000.53
2017-07-10T04:29:20.080Z,1000.53
2017-07-10T04:30:21.331Z,1000.54
2017-07-10T04:31:22.575Z,1000.56
2017-07-10T04:32:23.829Z,1000.51
2017-07-10T04:33:25.100Z,1000.52
2017-07-10T04:34:26.351Z,1000.49
2017-07-10T04:35:27.597Z,1000.49
2017-07-10T04:36:28.865Z,1000.49
2017-07-10T04:37:30.122Z,1000.53
2017-07-10T04:38:31.412Z,1000.51
2017-07-10T04:39:32.684Z,1000.52
2017-07-10T04:40:33.961Z,1000.47
2017-07-10T04:41:35.239Z,1000.5
2017-07-10T04:42:36.471Z,1000.54
2017-07-10T04:43:37.726Z,1000.5
2017-07-10T04:44:39.010Z,1000.55
2017-07-10T04:45:40.387Z,1000.51
2017-07-10T04:46:41.702Z,1000.48
2017-07-10T04:47:42.955Z,1000.52
2017-07-10T04:48:44.179Z,1000.51
2017-07-10T04:49:45.434Z,1000.55
2017-07-10T04:50:46.693Z,1000.54
2017-07-10T04:51:48.061Z,1000.57
2017-07-10T04:52:49.315Z,1000.56
2017-07-10T04:53:50.689Z,1000.57
2017-07-10T04:54:51.930Z,1000.52
2017-07-10T04:55:53.191Z,1000.51
2017-07-10T04:56:54.433Z,1000.51
2017-07-10T04:57:55.855Z,1000.49
2017-07-10T04:58:57.010Z,1000.46
2017-07-10T04:59:58.263Z,1000.5
2017-07-10T05:00:59.514Z,1000.46
2017-07-10T05:02:00.761Z,1000.45
2017-07-10T05:03:02.026Z,1000.46
2017-07-10T05:04:03.279Z,1000.47
2017-07-10T05:05:04.538Z,1000.46
2017-07-10T05:06:05.847Z,1000.47
2017-07-10T05:07:07.104Z,1000.42
2017-07-10T05:08:08.366Z,1000.49
2017-07-10T05:09:09.588Z,1000.46
2017-07-10T05:10:10.910Z,1000.44
2017-07-10T05:11:12.172Z,1000.44
2017-07-10T05:12:13.431Z,1000.47
2017-07-10T05:13:14.673Z,1000.44
2017-07-10T05:14:15.913Z,1000.49
2017-07-10T05:15:17.177Z,1000.48
2017-07-10T05:16:18.488Z,1000.48
2017-07-10T05:17:19.747Z,1000.49
2017-07-10T05:18:21.021Z,1000.47
2017-07-10T05:19:22.256Z,1000.47
2017-07-10T05:20:23.502Z,1000.46
2017-07-10T05:21:24.799Z,1000.48
2017-07-10T05:22:26.419Z,1000.48
2017-07-10T05:23:27.822Z,1000.48
2017-07-10T05:24:29.059Z,1000.48
2017-07-10T05:25:30.310Z,1000.49
2017-07-10T05:26:31.558Z,1000.45
2017-07-10T05:27:32.869Z,1000.45
2017-07-10T05:28:34.146Z,1000.44
2017-07-10T05:29:35.402Z,1000.42
2017-07-10T05:30:36.626Z,1000.39
2017-07-10T05:31:37.871Z,1000.42
2017-07-10T05:32:39.126Z,1000.39
2017-07-10T05:33:40.432Z,1000.4
2017-07-10T05:34:41.667Z,1000.39
2017-07-10T05:35:42.911Z,1000.4
2017-07-10T05:36:44.150Z,1000.38
2017-07-10T05:37:45.405Z,1000.37
2017-07-10T05:38:46.658Z,1000.39
2017-07-10T05:39:48.031Z,1000.33
2017-07-10T05:40:49.295Z,1000.37
2017-07-10T05:41:50.576Z,1000.4
2017-07-10T05:42:51.907Z,1000.39
2017-07-10T05:43:53.087Z,1000.43
2017-07-10T05:44:54.431Z,1000.46
2017-07-10T05:45:55.587Z,1000.45
2017-07-10T05:46:57.054Z,1000.5
2017-07-10T05:47:58.387Z,1000.53
2017-07-10T05:48:59.629Z,1000.52
2017-07-10T05:50:00.877Z,1000.56
2017-07-10T05:51:02.175Z,1000.61
2017-07-10T05:52:03.415Z,1000.62
2017-07-10T05:53:04.757Z,1000.62
2017-07-10T05:54:06.034Z,1000.6
2017-07-10T05:55:07.271Z,1000.66
2017-07-10T05:56:08.522Z,1000.63
2017-07-10T05:57:09.769Z,1000.65
2017-07-10T05:58:11.152Z,1000.65
2017-07-10T05:59:12.381Z,1000.68
2017-07-10T06:00:13.630Z,1000.71
2017-07-10T06:01:14.882Z,1000.76
2017-07-10T06:02:16.146Z,1000.75
2017-07-10T06:03:17.408Z,1000.81
2017-07-10T06:04:18.685Z,1000.84
2017-07-10T06:05:19.955Z,1000.78
2017-07-10T06:06:21.220Z,1000.84
2017-07-10T06:07:22.486Z,1000.82
2017-07-10T06:08:23.736Z,1000.8
2017-07-10T06:09:24.979Z,1000.82
2017-07-10T06:10:26.259Z,1000.83
2017-07-10T06:11:27.487Z,1000.81
2017-07-10T06:12:28.728Z,1000.81
2017-07-10T06:13:30.019Z,1000.79
2017-07-10T06:14:31.264Z,1000.78
2017-07-10T06:15:32.503Z,1000.76
2017-07-10T06:16:33.746Z,1000.79
2017-07-10T06:17:35.053Z,1000.74
2017-07-10T06:18:36.332Z,1000.72
2017-07-10T06:19:37.647Z,1000.74
2017-07-10T06:20:38.861Z,1000.69
2017-07-10T06:21:40.105Z,1000.7
2017-07-10T06:22:41.388Z,1000.65
2017-07-10T06:23:42.910Z,1000.65
2017-07-10T06:24:44.198Z,1000.61
2017-07-10T06:25:45.449Z,1000.61
2017-07-10T06:26:46.694Z,1000.62
2017-07-10T06:27:47.945Z,1000.61
2017-07-10T06:28:49.192Z,1000.62
2017-07-10T06:29:50.430Z,1000.58
2017-07-10T06:30:51.697Z,1000.56
2017-07-10T06:31:52.942Z,1000.57
2017-07-10T06:32:54.179Z,1000.56
2017-07-10T06:33:55.428Z,1000.55
2017-07-10T06:34:56.697Z,1000.52
2017-07-10T06:35:57.934Z,1000.51
2017-07-10T06:36:59.188Z,1000.57
2017-07-10T06:38:00.424Z,1000.55
2017-07-10T06:39:01.675Z,1000.56
2017-07-10T06:40:03.026Z,1000.61
2017-07-10T06:41:04.283Z,1000.56
2017-07-10T06:42:05.529Z,1000.62
2017-07-10T06:43:06.780Z,1000.61
2017-07-10T06:44:08.022Z,1000.67
2017-07-10T06:45:09.257Z,1000.67
2017-07-10T06:46:10.505Z,1000.72
2017-07-10T06:47:11.793Z,1000.77
2017-07-10T06:48:13.045Z,1000.79
2017-07-10T06:49:14.349Z,1000.78
2017-07-10T06:50:15.589Z,1000.79
2017-07-10T06:51:16.849Z,1000.75
2017-07-10T06:52:18.129Z,1000.77
2017-07-10T06:53:19.406Z,1000.78
2017-07-10T06:54:20.693Z,1000.78
2017-07-10T06:55:22.042Z,1000.84
2017-07-10T06:56:23.265Z,1000.81
2017-07-10T06:57:24.518Z,1000.88
2017-07-10T06:58:25.764Z,1000.87
2017-07-10T06:59:27.041Z,1000.87
2017-07-10T07:00:28.281Z,1000.86
2017-07-10T07:01:29.580Z,1000.89
2017-07-10T07:02:30.809Z,1000.86
2017-07-10T07:03:32.074Z,1000.87
2017-07-10T07:04:33.359Z,1000.84
2017-07-10T07:05:34.696Z,1000.83
2017-07-10T07:06:36.007Z,1000.83
2017-07-10T07:07:37.264Z,1000.8
2017-07-10T07:08:38.505Z,1000.79
2017-07-10T07:09:39.765Z,1000.74
2017-07-10T07:10:40.993Z,1000.76
2017-07-10T07:11:42.274Z,1000.76
2017-07-10T07:12:43.557Z,1000.72
2017-07-10T07:13:44.900Z,1000.71
2017-07-10T07:14:46.201Z,1000.64
2017-07-10T07:15:47.455Z,1000.61
2017-07-10T07:16:48.720Z,1000.57
2017-07-10T07:17:49.947Z,1000.56
2017-07-10T07:18:51.205Z,1000.53
2017-07-10T07:19:52.671Z,1000.55
2017-07-10T07:20:53.940Z,1000.54
2017-07-10T07:21:55.199Z,1000.52
2017-07-10T07:22:56.461Z,1000.51
2017-07-10T07:23:57.704Z,1000.53
2017-07-10T07:24:59.118Z,1000.5
2017-07-10T07:26:00.500Z,1000.49
2017-07-10T07:27:01.758Z,1000.53
2017-07-10T07:28:03.083Z,1000.49
2017-07-10T07:29:04.425Z,1000.51
2017-07-10T07:30:05.709Z,1000.47
2017-07-10T07:31:06.955Z,1000.45
2017-07-10T07:32:08.240Z,1000.45
2017-07-10T07:33:09.480Z,1000.43
2017-07-10T07:34:10.756Z,1000.4
2017-07-10T07:35:11.972Z,1000.41
2017-07-10T07:36:13.217Z,1000.4
2017-07-10T07:37:14.510Z,1000.38
2017-07-10T07:38:15.780Z,1000.42
2017-07-10T07:39:17.026Z,1000.45
2017-07-10T07:40:18.296Z,1000.44
2017-07-10T07:41:19.540Z,1000.47
2017-07-10T07:42:20.795Z,1000.46
2017-07-10T07:43:22.064Z,1000.47
2017-07-10T07:44:23.317Z,1000.43
2017-07-10T07:45:24.568Z,1000.46
2017-07-10T07:46:25.812Z,1000.46
2017-07-10T07:47:27.117Z,1000.41
2017-07-10T07:48:28.379Z,1000.44
2017-07-10T07:49:29.709Z,1000.42
2017-07-10T07:50:30.927Z,1000.49
2017-07-10T07:51:32.168Z,1000.49
2017-07-10T07:52:33.445Z,1000.48
2017-07-10T07:53:34.932Z,1000.5
2017-07-10T07:54:36.157Z,1000.48
2017-07-10T07:55:37.417Z,1000.46
2017-07-10T07:56:38.658Z,1000.45
2017-07-10T07:57:39.899Z,1000.44
2017-07-10T07:58:41.165Z,1000.46
2017-07-10T07:59:42.422Z,1000.44
2017-07-10T08:00:43.715Z,1000.42
2017-07-10T08:01:44.960Z,1000.41
2017-07-10T08:02:46.202Z,1000.4
2017-07-10T08:03:47.443Z,1000.35
2017-07-10T08:04:48.694Z,1000.36
2017-07-10T08:05:49.973Z,1000.33
2017-07-10T08:06:51.211Z,1000.33
2017-07-10T08:07:52.596Z,1000.32
2017-07-10T08:08:53.840Z,1000.32
2017-07-10T08:09:55.085Z,1000.32
2017-07-10T08:10:56.333Z,1000.32
2017-07-10T08:11:57.578Z,1000.33
2017-07-10T08:12:58.832Z,1000.3
2017-07-10T08:14:00.083Z,1000.31
2017-07-10T08:15:01.334Z,1000.33
2017-07-10T08:16:02.577Z,1000.33
2017-07-10T08:17:03.823Z,1000.34
2017-07-10T08:18:05.121Z,1000.31
2017-07-10T08:19:06.452Z,1000.32
2017-07-10T08:20:07.701Z,1000.3
2017-07-10T08:21:08.978Z,1000.28
2017-07-10T08:22:10.257Z,1000.25
2017-07-10T08:23:11.545Z,1000.25
2017-07-10T08:24:12.847Z,1000.24
2017-07-10T08:25:14.116Z,1000.27
2017-07-10T08:26:15.386Z,1000.3
2017-07-10T08:27:16.627Z,1000.32
2017-07-10T08:28:17.861Z,1000.34
2017-07-10T08:29:19.106Z,1000.34
2017-07-10T08:30:20.496Z,1000.32
2017-07-10T08:31:21.658Z,1000.34
2017-07-10T08:32:22.933Z,1000.36
2017-07-10T08:33:24.192Z,1000.34
2017-07-10T08:34:25.446Z,1000.32
2017-07-10T08:35:26.688Z,1000.31
2017-07-10T08:36:27.944Z,1000.3
2017-07-10T08:37:29.197Z,1000.32
2017-07-10T08:38:30.471Z,1000.3
2017-07-10T08:39:31.801Z,1000.27
2017-07-10T08:40:33.040Z,1000.32
2017-07-10T08:41:34.296Z,1000.31
2017-07-10T08:42:35.549Z,1000.31
2017-07-10T08:43:36.850Z,1000.3
2017-07-10T08:44:38.158Z,1000.29
2017-07-10T08:45:39.388Z,1000.3
2017-07-10T08:46:40.650Z,1000.27
2017-07-10T08:47:41.893Z,1000.32
2017-07-10T08:48:43.133Z,1000.34
2017-07-10T08:49:44.393Z,1000.35
2017-07-10T08:50:45.666Z,1000.36
2017-07-10T08:51:46.890Z,1000.34
2017-07-10T08:52:48.152Z,1000.35
2017-07-10T08:53:49.391Z,1000.38
2017-07-10T08:54:50.687Z,1000.34
2017-07-10T08:55:51.908Z,1000.36
2017-07-10T08:56:53.171Z,1000.34
2017-07-10T08:57:54.448Z,1000.32
2017-07-10T08:58:55.713Z,1000.37
2017-07-10T08:59:56.962Z,1000.4
2017-07-10T09:00:58.203Z,1000.39
2017-07-10T09:01:59.541Z,1000.42
2017-07-10T09:03:00.874Z,1000.41
2017-07-10T09:04:02.140Z,1000.43
2017-07-10T09:05:03.368Z,1000.44
2017-07-10T09:06:04.648Z,1000.46
2017-07-10T09:07:05.886Z,1000.46
2017-07-10T09:08:07.108Z,1000.49
2017-07-10T09:09:08.364Z,1000.47
2017-07-10T09:10:09.620Z,1000.48
2017-07-10T09:11:10.867Z,1000.5
2017-07-10T09:12:12.225Z,1000.52
2017-07-10T09:13:13.479Z,1000.54
2017-07-10T09:14:14.729Z,1000.57
2017-07-10T09:15:16.043Z,1000.55
2017-07-10T09:16:17.315Z,1000.51
2017-07-10T09:17:18.580Z,1000.53
2017-07-10T09:18:19.840Z,1000.56
2017-07-10T09:19:21.108Z,1000.53
2017-07-10T09:20:22.379Z,1000.54
2017-07-10T09:21:23.614Z,1000.53
2017-07-10T09:22:24.966Z,1000.48
2017-07-10T09:23:26.222Z,1000.45
2017-07-10T09:24:27.472Z,1000.43
2017-07-10T09:25:28.730Z,1000.41
2017-07-10T09:26:29.998Z,1000.43
2017-07-10T09:27:31.260Z,1000.44
2017-07-10T09:28:32.570Z,1000.45
2017-07-10T09:29:33.937Z,1000.45
2017-07-10T09:30:35.204Z,1000.48
2017-07-10T09:31:36.433Z,1000.47
2017-07-10T09:32:37.704Z,1000.47
2017-07-10T09:33:38.965Z,1000.47
2017-07-10T09:34:40.332Z,1000.49
2017-07-10T09:35:41.583Z,1000.5
2017-07-10T09:36:42.840Z,1000.5
2017-07-10T09:37:44.095Z,1000.46
2017-07-10T09:38:45.414Z,1000.4
2017-07-10T09:39:46.674Z,1000.43
2017-07-10T09:40:47.976Z,1000.42
2017-07-10T09:41:49.232Z,1000.42
2017-07-10T09:42:50.500Z,1000.41
2017-07-10T09:43:51.761Z,1000.45
2017-07-10T09:44:53.066Z,1000.43
2017-07-10T09:45:54.343Z,1000.45
2017-07-10T09:46:55.591Z,1000.43
2017-07-10T09:47:56.851Z,1000.4
2017-07-10T09:48:58.099Z,1000.36
2017-07-10T09:49:59.370Z,1000.35
2017-07-10T09:51:00.717Z,1000.34
2017-07-10T09:52:02.002Z,1000.31
2017-07-10T09:53:03.241Z,1000.36
2017-07-10T09:54:04.503Z,1000.42
2017-07-10T09:55:05.768Z,1000.37
2017-07-10T09:56:07.019Z,1000.38
2017-07-10T09:57:08.287Z,1000.42
2017-07-10T09:58:09.529Z,1000.47
2017-07-10T09:59:10.838Z,1000.68
2017-07-10T10:00:12.336Z,1000.98
2017-07-10T10:01:13.595Z,1000.88
2017-07-10T10:02:14.844Z,1000.78
2017-07-10T10:03:16.182Z,1001.64
2017-07-10T10:04:17.479Z,1001.78
2017-07-10T10:05:18.721Z,1002.47
2017-07-10T10:06:20.001Z,1001.99
2017-07-10T10:07:21.371Z,1001.23
2017-07-10T10:08:22.680Z,1002.49
2017-07-10T10:09:24.011Z,1001.98
2017-07-10T10:10:25.268Z,1002.75
2017-07-10T10:11:26.534Z,1002.62
2017-07-10T10:12:27.785Z,1002.17
2017-07-10T10:13:29.056Z,1001.14
2017-07-10T10:14:30.398Z,1001.01
2017-07-10T10:15:31.808Z,1000.93
2017-07-10T10:16:33.041Z,1000.81
2017-07-10T10:17:34.330Z,1000.66
2017-07-10T10:18:35.583Z,1000.69
2017-07-10T10:19:36.857Z,1000.52
2017-07-10T10:20:38.198Z,1000.62
2017-07-10T10:21:39.436Z,1000.61
2017-07-10T10:22:40.697Z,1000.39
2017-07-10T10:23:41.956Z,1000.38
2017-07-10T10:24:43.215Z,1000.67
2017-07-10T10:25:44.480Z,1000.63
2017-07-10T10:26:45.733Z,1000.63
2017-07-10T10:27:46.988Z,1000.54
2017-07-10T10:28:48.280Z,1000.51
2017-07-10T10:29:49.540Z,1000.66
2017-07-10T10:30:50.814Z,1000.58
2017-07-10T10:31:52.064Z,1000.61
2017-07-10T10:32:53.336Z,1000.73
2017-07-10T10:33:54.803Z,1000.52
2017-07-10T10:34:56.047Z,1000.49
2017-07-10T10:35:57.326Z,1000.46
2017-07-10T10:36:58.585Z,1000.41
2017-07-10T10:37:59.866Z,1000.39
2017-07-10T10:39:01.130Z,1000.37
2017-07-10T10:40:02.379Z,1000.38
2017-07-10T10:41:03.656Z,1000.36
2017-07-10T10:42:04.923Z,1000.3
2017-07-10T10:43:06.178Z,1000.24
2017-07-10T10:44:07.487Z,1000.23
2017-07-10T10:45:08.744Z,1000.23
2017-07-10T10:46:10.016Z,1000.27
2017-07-10T10:47:11.283Z,1000.17
2017-07-10T10:48:12.568Z,1000.2
2017-07-10T10:49:13.830Z,1000.17
2017-07-10T10:50:15.111Z,1000.13
2017-07-10T10:51:16.381Z,1000.14
2017-07-10T10:52:17.647Z,1000.12
2017-07-10T10:53:18.896Z,1000.15
2017-07-10T10:54:20.147Z,1000.15
2017-07-10T10:55:21.404Z,1000.19
2017-07-10T10:56:22.729Z,1000.22
2017-07-10T10:57:23.995Z,1000.31
2017-07-10T10:58:25.240Z,1000.32
2017-07-10T10:59:26.491Z,1000.37
2017-07-10T11:00:27.746Z,1000.37
2017-07-10T11:01:29.007Z,1000.35
2017-07-10T11:02:30.303Z,1000.4
2017-07-10T11:03:31.537Z,1000.4
2017-07-10T11:04:33.215Z,1000.34
2017-07-10T11:05:34.463Z,1000.39
2017-07-10T11:06:35.787Z,1000.44
2017-07-10T11:07:37.078Z,1000.52
2017-07-10T11:08:38.351Z,1000.54
2017-07-10T11:09:39.607Z,1000.55
2017-07-10T11:10:40.860Z,1000.47
2017-07-10T11:11:42.109Z,1000.43
2017-07-10T11:12:43.406Z,1000.35
2017-07-10T11:13:44.709Z,1000.36
2017-07-10T11:14:46.019Z,1000.33
2017-07-10T11:15:47.213Z,1000.37
2017-07-10T11:16:48.471Z,1000.32
2017-07-10T11:17:49.732Z,1000.32
2017-07-10T11:18:51.140Z,1000.32
2017-07-10T11:19:52.451Z,1000.31
2017-07-10T11:20:53.728Z,1000.26
2017-07-10T11:21:54.971Z,1000.23
2017-07-10T11:22:56.302Z,1000.18
2017-07-10T11:23:57.546Z,1000.16
2017-07-10T11:24:58.868Z,1000.16
2017-07-10T11:26:00.162Z,1000.22
2017-07-10T11:27:01.414Z,1000.25
2017-07-10T11:28:02.661Z,1000.29
2017-07-10T11:29:03.914Z,1000.29
2017-07-10T11:30:05.197Z,1000.28
2017-07-10T11:31:06.521Z,1000.27
2017-07-10T11:32:07.789Z,1000.28
2017-07-10T11:33:09.042Z,1000.22
2017-07-10T11:34:10.347Z,1000.2
2017-07-10T11:35:11.609Z,1000.19
2017-07-10T11:36:12.901Z,1000.17
2017-07-10T11:37:14.169Z,1000.16
2017-07-10T11:38:15.433Z,1000.15
2017-07-10T11:39:16.787Z,1000.13
2017-07-10T11:40:18.019Z,1000.1
2017-07-10T11:41:19.280Z,1000.1
2017-07-10T11:42:20.579Z,1000.07
2017-07-10T11:43:21.808Z,1000.07
2017-07-10T11:44:23.177Z,1000.12
2017-07-10T11:45:24.446Z,1000.06
2017-07-10T11:46:25.704Z,1000.07
2017-07-10T11:47:26.985Z,1000.05
2017-07-10T11:48:28.240Z,1000.03
2017-07-10T11:49:29.593Z,1000.02
2017-07-10T11:50:30.743Z,999.95
2017-07-10T11:51:31.992Z,999.96
2017-07-10T11:52:33.249Z,999.98
2017-07-10T11:53:34.522Z,999.97
2017-07-10T11:54:35.812Z,1000.01
2017-07-10T11:55:37.089Z,1000
2017-07-10T11:56:38.365Z,1000
2017-07-10T11:57:39.662Z,1000.01
2017-07-10T11:58:40.870Z,999.99
2017-07-10T11:59:42.136Z,1000.04
2017-07-10T12:00:43.447Z,1000.05
2017-07-10T12:01:44.710Z,1000.09
2017-07-10T12:02:46.008Z,1000.03
2017-07-10T12:03:47.244Z,1000.06
2017-07-10T12:04:48.495Z,1000.02
2017-07-10T12:05:49.771Z,999.98
2017-07-10T12:06:51.008Z,999.95
2017-07-10T12:07:52.302Z,999.96
2017-07-10T12:08:53.643Z,999.96
2017-07-10T12:09:54.964Z,999.96
2017-07-10T12:10:56.218Z,999.96
2017-07-10T12:11:57.481Z,999.98
2017-07-10T12:12:58.743Z,999.95
2017-07-10T12:14:00.033Z,999.94
2017-07-10T12:15:01.320Z,999.93
2017-07-10T12:16:02.582Z,999.94
2017-07-10T12:17:03.850Z,999.95
2017-07-10T12:18:05.094Z,999.92
2017-07-10T12:19:06.347Z,999.93
2017-07-10T12:20:07.595Z,999.87
2017-07-10T12:21:08.902Z,999.9
2017-07-10T12:22:10.295Z,999.9
2017-07-10T12:23:11.542Z,999.89
2017-07-10T12:24:12.820Z,999.93
2017-07-10T12:25:14.099Z,999.98